LTCDUDYZ

Guest
Details From LTCD - ERZINCAN
To UDYZ - ZVARTNOTS
Flight Number -
Tags generated
Created
Modified
Stats Distance 226 nm / 419 km
Max Altitude 27,500 ft / 8,382 m
Waypoints 5
Social Downloads 0
Likes 0
Share VATSIM

Download

Looking for another format? Having issues loading an existing format? Contact us
Advertisement - Login to hide

Notes

Basic altitude profile: - Ascent Rate: 2500ft/min - Ascent Speed: 250kts - Cruise Altitude: 35000ft - Cruise Speed: 420kts - Descent Rate: 1500ft/min - Descent Speed: 250kts Options: - Use NATs: no - Use PACOTS: no - Use low airways: yes - Use high airways: yes

Route

LTCD ALVAR UB374 YAVUZ B374 INDUR UDYZ

ID Type Via Altitude Latitude Longitude Leg Dist Tot Dist Heading (true) Name
O LTCD APT - 0 ft / 0 m 39.71070˚ 39.52114˚ - 0 nm - ERZINCAN
ALVAR FIX - 25,100 ft / 7,650 m 39.99889˚ 41.74972˚ 104 nm 104 nm 80° / 81° -
YAVUZ FIX UB374 (AWY-HI) 27,500 ft / 8,382 m 40.04444˚ 42.43333˚ 31 nm 135 nm 85° / 85° -
INDUR FIX B374 (AWY-LO) 15,500 ft / 4,724 m 40.11556˚ 43.66472˚ 56 nm 192 nm 85° / 86° -
O UDYZ APT - 0 ft / 0 m 40.14727˚ 44.39588˚ 33 nm 226 nm 87° / 87° ZVARTNOTS

Altitude Profile

Advertisement - Login to hide

Weather


0- 5 10 15 20 25 30 35+ Temperature / ° C

Clouds and Precipitation
Forecast for 2017-12-14 00:00 UTC. Updated a minute ago

Ground ~20,000 ft ~40,000 ft Winds

LTCD

Details ICAO LTCD (ERC)
Name ERZINCAN
Region Turkey
Timezone Europe/Istanbul (UTC+3.0)
Stats Elevation 3,783 ft / 1,153 m (AMSL)
Location 39.710705° 39.521140°
Runways 2
Magnetic Variation 6.010° E

METAR

LTCD 131850Z 00000KT 3200 BR NSC M01/M04 Q1022 BECMG TL1950 6000 NSC

Decode

TAF

Not found

Departure Runways

ID Width Length Bearing (true) Bearing (mag) Surface Threshold Offset Overrun Length
11 148 ft / 45 m 9,825 ft / 2,995 m 110.83° 104.82° Concrete 0 ft / 0 m 197 ft / 60 m
13 137 ft / 42 m 5,890 ft / 1,795 m 127.15° 121.14° Concrete 0 ft / 0 m 0 ft / 0 m
29 148 ft / 45 m 9,825 ft / 2,995 m 290.86° 284.85° Concrete 0 ft / 0 m 197 ft / 60 m
31 137 ft / 42 m 5,890 ft / 1,795 m 307.16° 301.15° Concrete 0 ft / 0 m 0 ft / 0 m

UDYZ

Details ICAO UDYZ (EVN)
Name ZVARTNOTS
Region Armenia
Timezone Asia/Yerevan (UTC+4.0)
Stats Elevation 2,838 ft / 865 m (AMSL)
Location 40.147271° 44.395880°
Runways 1
Magnetic Variation 6.200° E

METAR

UDYZ 131900Z 35002KT 2000 R09/P2000D BR NSC M04/M05 Q1024 R09/000070 NOSIG

Decode

TAF

Not found

Destination Runways

ID Width Length Bearing (true) Bearing (mag) Surface Threshold Offset Overrun Length
09 184 ft / 56 m 12,601 ft / 3,841 m 89.59° 83.39° Asphalt 0 ft / 0 m 0 ft / 0 m
27 184 ft / 56 m 12,601 ft / 3,841 m 269.62° 263.42° Asphalt 0 ft / 0 m 0 ft / 0 m

Approach Navaids

Runway Type Ident Frequency Range Bearing (true) Bearing (mag) Slope Elevation
09 Localiser IZR 108.10 MHz 18 nm / 33 km 89.83° 83.63° - 2,838 ft / 865 m (AMSL)
09 Glidescope IZR 108.10 MHz 10 nm / 19 km 89.61° 83.41° 2.67° 2,838 ft / 865 m (AMSL)